sensor_id;sensor_type;location;lat;lon;timestamp;pressure;altitude;pressure_sealevel;temperature
19102;BMP280;9683;49.028;12.064;2022-11-20T00:00:18;96674.00;;;4.16
19102;BMP280;9683;49.028;12.064;2022-11-20T00:02:45;96670.56;;;4.15
19102;BMP280;9683;49.028;12.064;2022-11-20T00:05:11;96666.72;;;4.18
19102;BMP280;9683;49.028;12.064;2022-11-20T00:07:38;96670.78;;;4.27
19102;BMP280;9683;49.028;12.064;2022-11-20T00:10:05;96670.19;;;4.32
19102;BMP280;9683;49.028;12.064;2022-11-20T00:12:32;96662.53;;;4.37
19102;BMP280;9683;49.028;12.064;2022-11-20T00:14:58;96669.78;;;4.35
19102;BMP280;9683;49.028;12.064;2022-11-20T00:17:26;96670.78;;;4.34
19102;BMP280;9683;49.028;12.064;2022-11-20T00:19:53;96672.81;;;4.32
19102;BMP280;9683;49.028;12.064;2022-11-20T00:22:19;96668.16;;;4.21
19102;BMP280;9683;49.028;12.064;2022-11-20T00:24:46;96667.50;;;4.12
19102;BMP280;9683;49.028;12.064;2022-11-20T00:27:13;96668.50;;;4.11
19102;BMP280;9683;49.028;12.064;2022-11-20T00:29:39;96681.06;;;4.15
19102;BMP280;9683;49.028;12.064;2022-11-20T00:32:06;96679.84;;;4.11
19102;BMP280;9683;49.028;12.064;2022-11-20T00:34:34;96673.97;;;4.09
19102;BMP280;9683;49.028;12.064;2022-11-20T00:37:00;96669.31;;;4.11
19102;BMP280;9683;49.028;12.064;2022-11-20T00:39:27;96671.16;;;4.18
19102;BMP280;9683;49.028;12.064;2022-11-20T00:41:53;96676.63;;;4.23
19102;BMP280;9683;49.028;12.064;2022-11-20T00:44:20;96675.41;;;4.25
19102;BMP280;9683;49.028;12.064;2022-11-20T00:46:48;96681.91;;;4.23
19102;BMP280;9683;49.028;12.064;2022-11-20T00:49:14;96679.50;;;4.28
19102;BMP280;9683;49.028;12.064;2022-11-20T00:51:42;96682.13;;;4.34
19102;BMP280;9683;49.028;12.064;2022-11-20T00:54:09;96681.13;;;4.35
19102;BMP280;9683;49.028;12.064;2022-11-20T00:56:35;96677.69;;;4.35
19102;BMP280;9683;49.028;12.064;2022-11-20T00:59:02;96676.28;;;4.39
19102;BMP280;9683;49.028;12.064;2022-11-20T01:01:29;96671.25;;;4.44
19102;BMP280;9683;49.028;12.064;2022-11-20T01:03:58;96674.69;;;4.51
19102;BMP280;9683;49.028;12.064;2022-11-20T01:06:27;96676.94;;;4.54
19102;BMP280;9683;49.028;12.064;2022-11-20T01:08:56;96682.41;;;4.59
19102;BMP280;9683;49.028;12.064;2022-11-20T01:11:25;96681.63;;;4.58
19102;BMP280;9683;49.028;12.064;2022-11-20T01:13:52;96674.91;;;4.49
19102;BMP280;9683;49.028;12.064;2022-11-20T01:16:22;96687.63;;;4.39
19102;BMP280;9683;49.028;12.064;2022-11-20T01:18:51;96685.41;;;4.36
19102;BMP280;9683;49.028;12.064;2022-11-20T01:21:20;96683.78;;;4.35
19102;BMP280;9683;49.028;12.064;2022-11-20T01:23:47;96682.34;;;4.33
19102;BMP280;9683;49.028;12.064;2022-11-20T01:26:17;96691.66;;;4.35
19102;BMP280;9683;49.028;12.064;2022-11-20T01:28:45;96699.38;;;4.37
19102;BMP280;9683;49.028;12.064;2022-11-20T01:31:13;96686.63;;;4.40
19102;BMP280;9683;49.028;12.064;2022-11-20T01:33:41;96682.78;;;4.43
19102;BMP280;9683;49.028;12.064;2022-11-20T01:36:09;96685.63;;;4.48
19102;BMP280;9683;49.028;12.064;2022-11-20T01:38:36;96680.56;;;4.53
19102;BMP280;9683;49.028;12.064;2022-11-20T01:41:03;96693.13;;;4.51
19102;BMP280;9683;49.028;12.064;2022-11-20T01:43:32;96695.97;;;4.49
19102;BMP280;9683;49.028;12.064;2022-11-20T01:46:14;96687.66;;;4.46
19102;BMP280;9683;49.028;12.064;2022-11-20T01:48:46;96690.66;;;4.43
19102;BMP280;9683;49.028;12.064;2022-11-20T01:51:18;96693.72;;;4.40
19102;BMP280;9683;49.028;12.064;2022-11-20T01:53:46;96692.69;;;4.41
19102;BMP280;9683;49.028;12.064;2022-11-20T01:56:13;96696.97;;;4.42
19102;BMP280;9683;49.028;12.064;2022-11-20T01:58:44;96692.31;;;4.44
19102;BMP280;9683;49.028;12.064;2022-11-20T02:01:12;96687.22;;;4.42
19102;BMP280;9683;49.028;12.064;2022-11-20T02:03:40;96682.59;;;4.44
19102;BMP280;9683;49.028;12.064;2022-11-20T02:06:12;96681.16;;;4.48
19102;BMP280;9683;49.028;12.064;2022-11-20T02:08:40;96679.13;;;4.50
19102;BMP280;9683;49.028;12.064;2022-11-20T02:11:07;96675.31;;;4.53
19102;BMP280;9683;49.028;12.064;2022-11-20T02:13:34;96678.13;;;4.51
19102;BMP280;9683;49.028;12.064;2022-11-20T02:16:15;96680.75;;;4.51
19102;BMP280;9683;49.028;12.064;2022-11-20T02:18:43;96673.50;;;4.53
19102;BMP280;9683;49.028;12.064;2022-11-20T02:21:17;96671.88;;;4.59
19102;BMP280;9683;49.028;12.064;2022-11-20T02:23:59;96673.50;;;4.60
19102;BMP280;9683;49.028;12.064;2022-11-20T02:26:28;96678.34;;;4.63
19102;BMP280;9683;49.028;12.064;2022-11-20T02:28:56;96682.84;;;4.63
19102;BMP280;9683;49.028;12.064;2022-11-20T02:31:24;96685.47;;;4.63
19102;BMP280;9683;49.028;12.064;2022-11-20T02:33:54;96679.16;;;4.63
19102;BMP280;9683;49.028;12.064;2022-11-20T02:36:22;96680.59;;;4.66
19102;BMP280;9683;49.028;12.064;2022-11-20T02:38:50;96681.19;;;4.68
19102;BMP280;9683;49.028;12.064;2022-11-20T02:41:18;96675.34;;;4.73
19102;BMP280;9683;49.028;12.064;2022-11-20T02:43:45;96670.88;;;4.73
19102;BMP280;9683;49.028;12.064;2022-11-20T02:46:11;96668.66;;;4.77
19102;BMP280;9683;49.028;12.064;2022-11-20T02:48:38;96671.09;;;4.78
19102;BMP280;9683;49.028;12.064;2022-11-20T02:51:05;96666.03;;;4.77
19102;BMP280;9683;49.028;12.064;2022-11-20T02:53:31;96675.16;;;4.74
19102;BMP280;9683;49.028;12.064;2022-11-20T02:55:58;96671.69;;;4.74
19102;BMP280;9683;49.028;12.064;2022-11-20T02:58:26;96672.50;;;4.74
19102;BMP280;9683;49.028;12.064;2022-11-20T03:00:53;96665.63;;;4.73
19102;BMP280;9683;49.028;12.064;2022-11-20T03:03:19;96666.03;;;4.77
19102;BMP280;9683;49.028;12.064;2022-11-20T03:05:46;96657.75;;;4.80
19102;BMP280;9683;49.028;12.064;2022-11-20T03:08:13;96662.78;;;4.81
19102;BMP280;9683;49.028;12.064;2022-11-20T03:10:39;96654.69;;;4.83
19102;BMP280;9683;49.028;12.064;2022-11-20T03:13:06;96653.47;;;4.85
19102;BMP280;9683;49.028;12.064;2022-11-20T03:15:35;96650.63;;;4.87
19102;BMP280;9683;49.028;12.064;2022-11-20T03:18:02;96654.91;;;4.88
19102;BMP280;9683;49.028;12.064;2022-11-20T03:20:29;96657.53;;;4.88
19102;BMP280;9683;49.028;12.064;2022-11-20T03:22:55;96649.41;;;4.89
19102;BMP280;9683;49.028;12.064;2022-11-20T03:25:22;96649.63;;;4.88
19102;BMP280;9683;49.028;12.064;2022-11-20T03:27:49;96660.16;;;4.88
19102;BMP280;9683;49.028;12.064;2022-11-20T03:30:15;96667.84;;;4.89
19102;BMP280;9683;49.028;12.064;2022-11-20T03:32:43;96659.94;;;4.89
19102;BMP280;9683;49.028;12.064;2022-11-20T03:35:10;96661.78;;;4.89
19102;BMP280;9683;49.028;12.064;2022-11-20T03:37:37;96654.69;;;4.89
19102;BMP280;9683;49.028;12.064;2022-11-20T03:40:05;96659.34;;;4.87
19102;BMP280;9683;49.028;12.064;2022-11-20T03:42:32;96668.84;;;4.88
19102;BMP280;9683;49.028;12.064;2022-11-20T03:45:11;96659.75;;;4.84
19102;BMP280;9683;49.028;12.064;2022-11-20T03:47:38;96654.69;;;4.83
19102;BMP280;9683;49.028;12.064;2022-11-20T03:50:07;96663.19;;;4.85
19102;BMP280;9683;49.028;12.064;2022-11-20T03:52:34;96665.66;;;4.80
19102;BMP280;9683;49.028;12.064;2022-11-20T03:55:00;96658.94;;;4.77
19102;BMP280;9683;49.028;12.064;2022-11-20T03:57:27;96661.38;;;4.79
19102;BMP280;9683;49.028;12.064;2022-11-20T03:59:54;96657.75;;;4.80
19102;BMP280;9683;49.028;12.064;2022-11-20T04:02:20;96663.41;;;4.83
19102;BMP280;9683;49.028;12.064;2022-11-20T04:04:47;96662.19;;;4.86
19102;BMP280;9683;49.028;12.064;2022-11-20T04:07:15;96661.78;;;4.89
19102;BMP280;9683;49.028;12.064;2022-11-20T04:09:42;96661.56;;;4.90
19102;BMP280;9683;49.028;12.064;2022-11-20T04:12:08;96653.47;;;4.92
19102;BMP280;9683;49.028;12.064;2022-11-20T04:14:35;96664.22;;;4.90
19102;BMP280;9683;49.028;12.064;2022-11-20T04:17:03;96659.75;;;4.91
19102;BMP280;9683;49.028;12.064;2022-11-20T04:19:29;96664.22;;;4.90
19102;BMP280;9683;49.028;12.064;2022-11-20T04:21:56;96653.69;;;4.90
19102;BMP280;9683;49.028;12.064;2022-11-20T04:24:24;96651.84;;;4.91
19102;BMP280;9683;49.028;12.064;2022-11-20T04:26:50;96658.75;;;4.92
19102;BMP280;9683;49.028;12.064;2022-11-20T04:29:17;96646.59;;;4.91
19102;BMP280;9683;49.028;12.064;2022-11-20T04:31:44;96663.00;;;4.93
19102;BMP280;9683;49.028;12.064;2022-11-20T04:34:11;96651.84;;;4.91
19102;BMP280;9683;49.028;12.064;2022-11-20T04:36:38;96641.50;;;4.89
19102;BMP280;9683;49.028;12.064;2022-11-20T04:39:06;96644.78;;;4.91
19102;BMP280;9683;49.028;12.064;2022-11-20T04:41:35;96651.66;;;4.92
19102;BMP280;9683;49.028;12.064;2022-11-20T04:44:03;96642.31;;;4.90
19102;BMP280;9683;49.028;12.064;2022-11-20T04:46:32;96652.88;;;4.90
19102;BMP280;9683;49.028;12.064;2022-11-20T04:48:59;96645.97;;;4.89
19102;BMP280;9683;49.028;12.064;2022-11-20T04:51:26;96639.69;;;4.90
19102;BMP280;9683;49.028;12.064;2022-11-20T04:53:53;96634.41;;;4.90
19102;BMP280;9683;49.028;12.064;2022-11-20T04:56:19;96640.50;;;4.90
19102;BMP280;9683;49.028;12.064;2022-11-20T04:58:47;96636.03;;;4.91
19102;BMP280;9683;49.028;12.064;2022-11-20T05:01:16;96633.41;;;4.91
19102;BMP280;9683;49.028;12.064;2022-11-20T05:03:43;96635.03;;;4.92
19102;BMP280;9683;49.028;12.064;2022-11-20T05:06:12;96636.25;;;4.96
19102;BMP280;9683;49.028;12.064;2022-11-20T05:08:40;96634.22;;;4.98
19102;BMP280;9683;49.028;12.064;2022-11-20T05:11:08;96632.19;;;5.00
19102;BMP280;9683;49.028;12.064;2022-11-20T05:13:35;96627.94;;;4.99
19102;BMP280;9683;49.028;12.064;2022-11-20T05:16:05;96630.16;;;5.02
19102;BMP280;9683;49.028;12.064;2022-11-20T05:18:32;96631.38;;;4.99
19102;BMP280;9683;49.028;12.064;2022-11-20T05:20:59;96634.22;;;4.98
19102;BMP280;9683;49.028;12.064;2022-11-20T05:23:27;96634.22;;;4.98
19102;BMP280;9683;49.028;12.064;2022-11-20T05:25:54;96634.63;;;4.95
19102;BMP280;9683;49.028;12.064;2022-11-20T05:28:21;96634.81;;;4.93
19102;BMP280;9683;49.028;12.064;2022-11-20T05:30:48;96638.69;;;4.91
19102;BMP280;9683;49.028;12.064;2022-11-20T05:33:17;96637.69;;;4.92
19102;BMP280;9683;49.028;12.064;2022-11-20T05:35:44;96631.59;;;4.91
19102;BMP280;9683;49.028;12.064;2022-11-20T05:38:10;96637.47;;;4.93
19102;BMP280;9683;49.028;12.064;2022-11-20T05:40:37;96636.44;;;4.94
19102;BMP280;9683;49.028;12.064;2022-11-20T05:43:04;96633.00;;;4.94
19102;BMP280;9683;49.028;12.064;2022-11-20T05:45:30;96635.63;;;4.94
19102;BMP280;9683;49.028;12.064;2022-11-20T05:47:58;96635.44;;;4.95
19102;BMP280;9683;49.028;12.064;2022-11-20T05:50:27;96629.94;;;4.97
19102;BMP280;9683;49.028;12.064;2022-11-20T05:52:53;96631.00;;;4.96
19102;BMP280;9683;49.028;12.064;2022-11-20T05:55:20;96631.00;;;4.96
19102;BMP280;9683;49.028;12.064;2022-11-20T05:57:47;96637.06;;;4.96
19102;BMP280;9683;49.028;12.064;2022-11-20T06:00:14;96637.84;;;4.97
19102;BMP280;9683;49.028;12.064;2022-11-20T06:02:41;96632.59;;;4.97
19102;BMP280;9683;49.028;12.064;2022-11-20T06:05:08;96641.94;;;4.99
19102;BMP280;9683;49.028;12.064;2022-11-20T06:07:36;96639.69;;;5.03
19102;BMP280;9683;49.028;12.064;2022-11-20T06:10:03;96640.50;;;5.03
19102;BMP280;9683;49.028;12.064;2022-11-20T06:12:31;96644.53;;;5.06
19102;BMP280;9683;49.028;12.064;2022-11-20T06:14:58;96642.72;;;5.06
19102;BMP280;9683;49.028;12.064;2022-11-20T06:17:25;96642.31;;;5.03
19102;BMP280;9683;49.028;12.064;2022-11-20T06:19:52;96636.66;;;4.99
19102;BMP280;9683;49.028;12.064;2022-11-20T06:22:18;96626.13;;;4.99
19102;BMP280;9683;49.028;12.064;2022-11-20T06:24:47;96623.47;;;4.99
19102;BMP280;9683;49.028;12.064;2022-11-20T06:27:13;96634.81;;;4.93
19102;BMP280;9683;49.028;12.064;2022-11-20T06:29:40;96631.19;;;4.94
19102;BMP280;9683;49.028;12.064;2022-11-20T06:32:06;96627.94;;;4.92
19102;BMP280;9683;49.028;12.064;2022-11-20T06:34:33;96626.72;;;4.95
19102;BMP280;9683;49.028;12.064;2022-11-20T06:36:59;96631.81;;;4.96
19102;BMP280;9683;49.028;12.064;2022-11-20T06:39:26;96635.03;;;4.98
19102;BMP280;9683;49.028;12.064;2022-11-20T06:41:54;96638.06;;;5.02
19102;BMP280;9683;49.028;12.064;2022-11-20T06:44:21;96637.88;;;5.03
19102;BMP280;9683;49.028;12.064;2022-11-20T06:46:47;96634.22;;;5.04
19102;BMP280;9683;49.028;12.064;2022-11-20T06:49:14;96630.56;;;5.05
19102;BMP280;9683;49.028;12.064;2022-11-20T06:51:41;96639.28;;;5.06
19102;BMP280;9683;49.028;12.064;2022-11-20T06:54:07;96640.09;;;5.06
19102;BMP280;9683;49.028;12.064;2022-11-20T06:56:34;96638.06;;;5.08
19102;BMP280;9683;49.028;12.064;2022-11-20T06:59:04;96644.94;;;5.09
19102;BMP280;9683;49.028;12.064;2022-11-20T07:01:31;96647.19;;;5.06
19102;BMP280;9683;49.028;12.064;2022-11-20T07:03:58;96642.94;;;5.05
19102;BMP280;9683;49.028;12.064;2022-11-20T07:06:24;96635.25;;;5.03
19102;BMP280;9683;49.028;12.064;2022-11-20T07:08:51;96642.75;;;5.00
19102;BMP280;9683;49.028;12.064;2022-11-20T07:11:18;96637.84;;;4.97
19102;BMP280;9683;49.028;12.064;2022-11-20T07:13:45;96643.13;;;4.97
19102;BMP280;9683;49.028;12.064;2022-11-20T07:16:13;96638.69;;;5.04
19102;BMP280;9683;49.028;12.064;2022-11-20T07:18:39;96646.19;;;5.07
19102;BMP280;9683;49.028;12.064;2022-11-20T07:21:08;96645.97;;;5.08
19102;BMP280;9683;49.028;12.064;2022-11-20T07:23:35;96648.41;;;5.10
19102;BMP280;9683;49.028;12.064;2022-11-20T07:26:03;96644.34;;;5.14
19102;BMP280;9683;49.028;12.064;2022-11-20T07:28:29;96642.50;;;5.15
19102;BMP280;9683;49.028;12.064;2022-11-20T07:30:56;96644.53;;;5.19
19102;BMP280;9683;49.028;12.064;2022-11-20T07:33:24;96642.31;;;5.23
19102;BMP280;9683;49.028;12.064;2022-11-20T07:35:51;96640.06;;;5.26
19102;BMP280;9683;49.028;12.064;2022-11-20T07:38:18;96638.63;;;5.30
19102;BMP280;9683;49.028;12.064;2022-11-20T07:40:44;96640.66;;;5.35
19102;BMP280;9683;49.028;12.064;2022-11-20T07:43:11;96639.22;;;5.39
19102;BMP280;9683;49.028;12.064;2022-11-20T07:45:38;96637.22;;;5.41
19102;BMP280;9683;49.028;12.064;2022-11-20T07:48:05;96644.69;;;5.44
19102;BMP280;9683;49.028;12.064;2022-11-20T07:50:33;96641.69;;;5.47
19102;BMP280;9683;49.028;12.064;2022-11-20T07:53:01;96651.81;;;5.50
19102;BMP280;9683;49.028;12.064;2022-11-20T07:55:28;96647.94;;;5.52
19102;BMP280;9683;49.028;12.064;2022-11-20T07:57:55;96651.78;;;5.57
19102;BMP280;9683;49.028;12.064;2022-11-20T08:00:22;96649.75;;;5.59
19102;BMP280;9683;49.028;12.064;2022-11-20T08:02:49;96657.25;;;5.62
19102;BMP280;9683;49.028;12.064;2022-11-20T08:05:15;96648.72;;;5.66
19102;BMP280;9683;49.028;12.064;2022-11-20T08:07:44;96647.09;;;5.72
19102;BMP280;9683;49.028;12.064;2022-11-20T08:10:13;96638.56;;;5.76
19102;BMP280;9683;49.028;12.064;2022-11-20T08:12:44;96651.09;;;5.81
19102;BMP280;9683;49.028;12.064;2022-11-20T08:15:28;96653.53;;;5.82
19102;BMP280;9683;49.028;12.064;2022-11-20T08:18:00;96641.16;;;5.83
19102;BMP280;9683;49.028;12.064;2022-11-20T08:20:27;96644.03;;;5.88
19102;BMP280;9683;49.028;12.064;2022-11-20T08:22:59;96649.25;;;5.94
19102;BMP280;9683;49.028;12.064;2022-11-20T08:25:26;96648.88;;;5.97
19102;BMP280;9683;49.028;12.064;2022-11-20T08:27:53;96646.19;;;6.04
19102;BMP280;9683;49.028;12.064;2022-11-20T08:30:20;96646.38;;;6.09
19102;BMP280;9683;49.028;12.064;2022-11-20T08:32:46;96644.31;;;6.11
19102;BMP280;9683;49.028;12.064;2022-11-20T08:35:13;96646.31;;;6.16
19102;BMP280;9683;49.028;12.064;2022-11-20T08:37:40;96657.88;;;6.21
19102;BMP280;9683;49.028;12.064;2022-11-20T08:40:10;96658.88;;;6.27
19102;BMP280;9683;49.028;12.064;2022-11-20T08:42:45;96655.81;;;6.30
19102;BMP280;9683;49.028;12.064;2022-11-20T08:45:12;96660.28;;;6.29
19102;BMP280;9683;49.028;12.064;2022-11-20T08:47:39;96663.75;;;6.30
19102;BMP280;9683;49.028;12.064;2022-11-20T08:50:06;96659.28;;;6.30
19102;BMP280;9683;49.028;12.064;2022-11-20T08:52:33;96657.22;;;6.32
19102;BMP280;9683;49.028;12.064;2022-11-20T08:55:00;96651.72;;;6.34
19102;BMP280;9683;49.028;12.064;2022-11-20T08:57:31;96654.13;;;6.42
19102;BMP280;9683;49.028;12.064;2022-11-20T08:59:57;96657.34;;;6.44
19102;BMP280;9683;49.028;12.064;2022-11-20T09:02:24;96655.69;;;6.50
19102;BMP280;9683;49.028;12.064;2022-11-20T09:04:51;96655.25;;;6.53
19102;BMP280;9683;49.028;12.064;2022-11-20T09:07:18;96656.47;;;6.57
19102;BMP280;9683;49.028;12.064;2022-11-20T09:09:45;96651.34;;;6.62
19102;BMP280;9683;49.028;12.064;2022-11-20T09:12:13;96650.72;;;6.66
19102;BMP280;9683;49.028;12.064;2022-11-20T09:14:41;96642.16;;;6.71
19102;BMP280;9683;49.028;12.064;2022-11-20T09:17:09;96653.91;;;6.75
19102;BMP280;9683;49.028;12.064;2022-11-20T09:19:38;96651.50;;;6.73
19102;BMP280;9683;49.028;12.064;2022-11-20T09:22:05;96655.34;;;6.77
19102;BMP280;9683;49.028;12.064;2022-11-20T09:24:32;96653.47;;;6.78
19102;BMP280;9683;49.028;12.064;2022-11-20T09:27:01;96649.38;;;6.82
19102;BMP280;9683;49.028;12.064;2022-11-20T09:29:28;96644.09;;;6.82
19102;BMP280;9683;49.028;12.064;2022-11-20T09:31:56;96642.44;;;6.87
19102;BMP280;9683;49.028;12.064;2022-11-20T09:34:23;96642.81;;;6.91
19102;BMP280;9683;49.028;12.064;2022-11-20T09:36:50;96643.78;;;6.97
19102;BMP280;9683;49.028;12.064;2022-11-20T09:39:16;96643.19;;;6.95
19102;BMP280;9683;49.028;12.064;2022-11-20T09:41:56;96644.81;;;6.96
19102;BMP280;9683;49.028;12.064;2022-11-20T09:44:36;96641.53;;;7.00
19102;BMP280;9683;49.028;12.064;2022-11-20T09:47:08;96645.16;;;7.06
19102;BMP280;9683;49.028;12.064;2022-11-20T09:49:50;96652.84;;;7.07
19102;BMP280;9683;49.028;12.064;2022-11-20T09:52:27;96650.88;;;7.03
19102;BMP280;9683;49.028;12.064;2022-11-20T09:54:56;96657.38;;;7.00
19102;BMP280;9683;49.028;12.064;2022-11-20T09:57:30;96658.81;;;7.03
19102;BMP280;9683;49.028;12.064;2022-11-20T10:00:00;96660.84;;;7.01
19102;BMP280;9683;49.028;12.064;2022-11-20T10:02:34;96647.19;;;7.04
19102;BMP280;9683;49.028;12.064;2022-11-20T10:05:05;96649.00;;;7.03
19102;BMP280;9683;49.028;12.064;2022-11-20T10:07:37;96655.13;;;7.04
19102;BMP280;9683;49.028;12.064;2022-11-20T10:10:13;96645.19;;;6.99
19102;BMP280;9683;49.028;12.064;2022-11-20T10:12:56;96647.03;;;6.99
19102;BMP280;9683;49.028;12.064;2022-11-20T10:15:33;96645.63;;;6.96
19102;BMP280;9683;49.028;12.064;2022-11-20T10:18:21;96638.69;;;7.02
19102;BMP280;9683;49.028;12.064;2022-11-20T10:20:58;96633.31;;;7.08
19102;BMP280;9683;49.028;12.064;2022-11-20T10:23:48;96631.69;;;7.07
19102;BMP280;9683;49.028;12.064;2022-11-20T10:26:22;96642.69;;;7.11
19102;BMP280;9683;49.028;12.064;2022-11-20T10:29:01;96642.44;;;7.12
19102;BMP280;9683;49.028;12.064;2022-11-20T10:31:34;96635.47;;;7.18
19102;BMP280;9683;49.028;12.064;2022-11-20T10:34:06;96634.22;;;7.20
19102;BMP280;9683;49.028;12.064;2022-11-20T10:36:36;96625.88;;;7.23
19102;BMP280;9683;49.028;12.064;2022-11-20T10:39:07;96628.09;;;7.26
19102;BMP280;9683;49.028;12.064;2022-11-20T10:41:41;96629.91;;;7.26
19102;BMP280;9683;49.028;12.064;2022-11-20T10:44:13;96624.03;;;7.24
19102;BMP280;9683;49.028;12.064;2022-11-20T10:47:01;96628.09;;;7.26
19102;BMP280;9683;49.028;12.064;2022-11-20T10:49:30;96623.38;;;7.28
19102;BMP280;9683;49.028;12.064;2022-11-20T10:52:04;96619.66;;;7.36
19102;BMP280;9683;49.028;12.064;2022-11-20T10:54:39;96618.41;;;7.38
19102;BMP280;9683;49.028;12.064;2022-11-20T10:57:17;96628.78;;;7.40
19102;BMP280;9683;49.028;12.064;2022-11-20T11:00:00;96607.81;;;7.38
19102;BMP280;9683;49.028;12.064;2022-11-20T11:02:34;96616.72;;;7.44
19102;BMP280;9683;49.028;12.064;2022-11-20T11:05:10;96620.75;;;7.47
19102;BMP280;9683;49.028;12.064;2022-11-20T11:07:39;96617.53;;;7.45
19102;BMP280;9683;49.028;12.064;2022-11-20T11:10:14;96611.81;;;7.48
19102;BMP280;9683;49.028;12.064;2022-11-20T11:12:43;96622.59;;;7.46
19102;BMP280;9683;49.028;12.064;2022-11-20T11:15:14;96618.13;;;7.47
19102;BMP280;9683;49.028;12.064;2022-11-20T11:17:46;96612.63;;;7.48
19102;BMP280;9683;49.028;12.064;2022-11-20T11:20:19;96616.06;;;7.49
19102;BMP280;9683;49.028;12.064;2022-11-20T11:22:47;96599.81;;;7.45
19102;BMP280;9683;49.028;12.064;2022-11-20T11:25:23;96620.44;;;7.36
19102;BMP280;9683;49.028;12.064;2022-11-20T11:27:52;96601.16;;;7.36
19102;BMP280;9683;49.028;12.064;2022-11-20T11:30:21;96609.66;;;7.38
19102;BMP280;9683;49.028;12.064;2022-11-20T11:32:48;96600.31;;;7.35
19102;BMP280;9683;49.028;12.064;2022-11-20T11:35:22;96603.78;;;7.36
19102;BMP280;9683;49.028;12.064;2022-11-20T11:37:49;96602.16;;;7.35
19102;BMP280;9683;49.028;12.064;2022-11-20T11:40:18;96603.91;;;7.41
19102;BMP280;9683;49.028;12.064;2022-11-20T11:42:51;96594.16;;;7.42
19102;BMP280;9683;49.028;12.064;2022-11-20T11:45:19;96589.66;;;7.42
19102;BMP280;9683;49.028;12.064;2022-11-20T11:47:46;96588.44;;;7.45
19102;BMP280;9683;49.028;12.064;2022-11-20T11:50:20;96594.91;;;7.49
19102;BMP280;9683;49.028;12.064;2022-11-20T11:52:55;96589.38;;;7.50
19102;BMP280;9683;49.028;12.064;2022-11-20T11:55:29;96597.31;;;7.50
19102;BMP280;9683;49.028;12.064;2022-11-20T11:58:04;96583.66;;;7.53
19102;BMP280;9683;49.028;12.064;2022-11-20T12:00:34;96586.31;;;7.53
19102;BMP280;9683;49.028;12.064;2022-11-20T12:03:08;96584.03;;;7.57
19102;BMP280;9683;49.028;12.064;2022-11-20T12:05:40;96598.44;;;7.61
19102;BMP280;9683;49.028;12.064;2022-11-20T12:08:15;96587.03;;;7.60
19102;BMP280;9683;49.028;12.064;2022-11-20T12:10:45;96584.53;;;7.65
19102;BMP280;9683;49.028;12.064;2022-11-20T12:13:20;96583.94;;;7.63
19102;BMP280;9683;49.028;12.064;2022-11-20T12:15:48;96581.91;;;7.65
19102;BMP280;9683;49.028;12.064;2022-11-20T12:18:17;96592.25;;;7.67
19102;BMP280;9683;49.028;12.064;2022-11-20T12:20:56;96571.41;;;7.70
19102;BMP280;9683;49.028;12.064;2022-11-20T12:23:28;96581.59;;;7.73
19102;BMP280;9683;49.028;12.064;2022-11-20T12:25:58;96569.22;;;7.67
19102;BMP280;9683;49.028;12.064;2022-11-20T12:28:38;96569.38;;;7.72
19102;BMP280;9683;49.028;12.064;2022-11-20T12:31:17;96567.09;;;7.76
19102;BMP280;9683;49.028;12.064;2022-11-20T12:34:02;96571.22;;;7.72
19102;BMP280;9683;49.028;12.064;2022-11-20T12:36:39;96565.34;;;7.70
19102;BMP280;9683;49.028;12.064;2022-11-20T12:39:25;96563.88;;;7.74
19102;BMP280;9683;49.028;12.064;2022-11-20T12:42:17;96565.84;;;7.78
19102;BMP280;9683;49.028;12.064;2022-11-20T12:45:35;96571.28;;;7.83
19102;BMP280;9683;49.028;12.064;2022-11-20T12:48:33;96567.59;;;7.84
19102;BMP280;9683;49.028;12.064;2022-11-20T12:51:19;96577.63;;;7.82
19102;BMP280;9683;49.028;12.064;2022-11-20T12:54:01;96557.22;;;7.83
19102;BMP280;9683;49.028;12.064;2022-11-20T12:56:39;96556.44;;;7.82
19102;BMP280;9683;49.028;12.064;2022-11-20T12:59:32;96556.78;;;7.86
19102;BMP280;9683;49.028;12.064;2022-11-20T13:02:12;96553.47;;;7.91
19102;BMP280;9683;49.028;12.064;2022-11-20T13:04:55;96565.44;;;7.93
19102;BMP280;9683;49.028;12.064;2022-11-20T13:07:28;96559.81;;;7.90
19102;BMP280;9683;49.028;12.064;2022-11-20T13:09:56;96561.44;;;7.91
19102;BMP280;9683;49.028;12.064;2022-11-20T13:12:30;96561.63;;;7.89
19102;BMP280;9683;49.028;12.064;2022-11-20T13:15:04;96560.81;;;7.89
19102;BMP280;9683;49.028;12.064;2022-11-20T13:17:40;96560.00;;;7.88
19102;BMP280;9683;49.028;12.064;2022-11-20T13:20:15;96551.19;;;7.94
19102;BMP280;9683;49.028;12.064;2022-11-20T13:22:43;96549.47;;;8.00
19102;BMP280;9683;49.028;12.064;2022-11-20T13:25:22;96550.78;;;8.09
19102;BMP280;9683;49.028;12.064;2022-11-20T13:27:49;96543.63;;;8.09
19102;BMP280;9683;49.028;12.064;2022-11-20T13:30:18;96547.56;;;8.07
19102;BMP280;9683;49.028;12.064;2022-11-20T13:32:49;96542.00;;;8.08
19102;BMP280;9683;49.028;12.064;2022-11-20T13:35:25;96546.75;;;8.06
19102;BMP280;9683;49.028;12.064;2022-11-20T13:38:01;96546.38;;;8.03
19102;BMP280;9683;49.028;12.064;2022-11-20T13:40:30;96558.81;;;8.02
19102;BMP280;9683;49.028;12.064;2022-11-20T13:43:07;96553.75;;;8.01
19102;BMP280;9683;49.028;12.064;2022-11-20T13:45:34;96542.13;;;8.02
19102;BMP280;9683;49.028;12.064;2022-11-20T13:48:03;96541.44;;;8.06
19102;BMP280;9683;49.028;12.064;2022-11-20T13:50:44;96544.97;;;8.00
19102;BMP280;9683;49.028;12.064;2022-11-20T13:53:29;96546.47;;;7.96
19102;BMP280;9683;49.028;12.064;2022-11-20T13:56:03;96545.28;;;7.92
19102;BMP280;9683;49.028;12.064;2022-11-20T13:58:40;96550.22;;;7.89
19102;BMP280;9683;49.028;12.064;2022-11-20T14:01:13;96543.31;;;7.88
19102;BMP280;9683;49.028;12.064;2022-11-20T14:03:41;96550.91;;;7.84
19102;BMP280;9683;49.028;12.064;2022-11-20T14:06:12;96555.97;;;7.86
19102;BMP280;9683;49.028;12.064;2022-11-20T14:08:42;96550.84;;;7.91
19102;BMP280;9683;49.028;12.064;2022-11-20T14:11:17;96549.34;;;7.95
19102;BMP280;9683;49.028;12.064;2022-11-20T14:13:53;96556.03;;;7.97
19102;BMP280;9683;49.028;12.064;2022-11-20T14:16:20;96557.41;;;8.00
19102;BMP280;9683;49.028;12.064;2022-11-20T14:18:46;96555.16;;;8.03
19102;BMP280;9683;49.028;12.064;2022-11-20T14:21:21;96559.53;;;8.09
19102;BMP280;9683;49.028;12.064;2022-11-20T14:23:48;96553.22;;;8.10
19102;BMP280;9683;49.028;12.064;2022-11-20T14:26:18;96551.06;;;8.19
19102;BMP280;9683;49.028;12.064;2022-11-20T14:28:48;96555.31;;;8.20
19102;BMP280;9683;49.028;12.064;2022-11-20T14:31:21;96553.84;;;8.24
19102;BMP280;9683;49.028;12.064;2022-11-20T14:33:49;96552.00;;;8.24
19102;BMP280;9683;49.028;12.064;2022-11-20T14:36:16;96548.75;;;8.22